createdAt,value
2018-11-04T00:00:43.509Z,13.03
2018-11-04T00:03:11.685Z,10.93
2018-11-04T00:05:39.870Z,13.23
2018-11-04T00:08:08.646Z,16.67
2018-11-04T00:10:37.042Z,11.23
2018-11-04T00:13:06.526Z,16.60
2018-11-04T00:15:34.637Z,12.43
2018-11-04T00:18:02.790Z,14.33
2018-11-04T00:20:31.076Z,14.13
2018-11-04T00:22:59.319Z,14.43
2018-11-04T00:25:27.578Z,12.13
2018-11-04T00:27:56.498Z,12.27
2018-11-04T00:30:24.735Z,12.40
2018-11-04T00:32:53.177Z,12.23
2018-11-04T00:35:21.337Z,12.70
2018-11-04T00:37:49.723Z,14.33
2018-11-04T00:40:18.093Z,13.33
2018-11-04T00:42:46.261Z,12.80
2018-11-04T00:45:14.515Z,12.40
2018-11-04T00:47:42.610Z,14.20
2018-11-04T00:50:13.313Z,14.70
2018-11-04T00:52:42.876Z,10.87
2018-11-04T00:55:12.360Z,11.37
2018-11-04T00:57:44.110Z,11.33
2018-11-04T01:00:20.182Z,10.67
2018-11-04T01:02:50.597Z,9.10
2018-11-04T01:05:20.311Z,13.23
2018-11-04T01:07:48.541Z,12.80
2018-11-04T01:10:16.810Z,9.77
2018-11-04T01:12:45.424Z,11.43
2018-11-04T01:15:14.340Z,9.70
2018-11-04T01:17:42.986Z,11.60
2018-11-04T01:20:13.137Z,12.00
2018-11-04T01:22:41.317Z,13.83
2018-11-04T01:25:09.731Z,9.13
2018-11-04T01:27:37.889Z,9.37
2018-11-04T01:30:08.002Z,9.70
2018-11-04T01:32:36.149Z,10.93
2018-11-04T01:35:04.506Z,14.70
2018-11-04T01:37:32.702Z,11.90
2018-11-04T01:40:01.598Z,9.67
2018-11-04T01:42:29.766Z,10.17
2018-11-04T01:44:58.002Z,15.57
2018-11-04T01:47:26.221Z,9.03
2018-11-04T01:49:54.493Z,9.27
2018-11-04T01:52:22.670Z,13.07
2018-11-04T01:54:50.950Z,10.40
2018-11-04T01:57:19.631Z,9.87
2018-11-04T01:59:47.786Z,12.03
2018-11-04T02:02:16.012Z,11.67
2018-11-04T02:04:44.129Z,9.17
2018-11-04T02:07:12.421Z,10.30
2018-11-04T02:09:40.670Z,13.27
2018-11-04T02:12:08.850Z,9.80
2018-11-04T02:14:37.017Z,8.73
2018-11-04T02:17:05.176Z,9.00
2018-11-04T02:19:33.297Z,11.30
2018-11-04T02:22:01.540Z,8.97
2018-11-04T02:24:29.686Z,10.63
2018-11-04T02:26:57.825Z,7.63
2018-11-04T02:29:25.994Z,9.30
2018-11-04T02:31:54.146Z,9.53
2018-11-04T02:34:22.308Z,10.07
2018-11-04T02:36:50.495Z,8.50
2018-11-04T02:39:18.639Z,9.80
2018-11-04T02:41:46.813Z,9.57
2018-11-04T02:44:15.957Z,9.93
2018-11-04T02:46:44.148Z,8.67
2018-11-04T02:49:12.693Z,9.53
2018-11-04T02:51:40.858Z,9.50
2018-11-04T02:54:09.017Z,7.90
2018-11-04T02:56:37.181Z,9.03
2018-11-04T02:59:05.864Z,9.10
2018-11-04T03:01:34.038Z,9.77
2018-11-04T03:04:02.262Z,10.73
2018-11-04T03:06:30.370Z,7.23
2018-11-04T03:09:00.396Z,11.80
2018-11-04T03:11:28.740Z,9.97
2018-11-04T03:13:57.163Z,10.40
2018-11-04T03:16:25.391Z,9.80
2018-11-04T03:18:53.554Z,9.90
2018-11-04T03:21:21.737Z,12.07
2018-11-04T03:23:49.928Z,8.97
2018-11-04T03:26:18.282Z,8.83
2018-11-04T03:28:46.435Z,8.90
2018-11-04T03:31:14.681Z,8.93
2018-11-04T03:33:43.265Z,11.60
2018-11-04T03:36:11.445Z,10.73
2018-11-04T03:38:39.585Z,8.57
2018-11-04T03:41:07.784Z,9.00
2018-11-04T03:43:37.269Z,11.30
2018-11-04T03:46:05.742Z,11.27
2018-11-04T03:48:33.959Z,12.43
2018-11-04T03:51:02.094Z,9.13
2018-11-04T03:53:30.287Z,11.17
2018-11-04T03:55:58.432Z,9.90
2018-11-04T03:58:26.694Z,11.47
2018-11-04T04:00:54.874Z,11.23
2018-11-04T04:03:23.241Z,10.03
2018-11-04T04:05:51.425Z,9.93
2018-11-04T04:08:20.274Z,12.47
2018-11-04T04:10:48.840Z,12.27
2018-11-04T04:13:17.421Z,9.83
2018-11-04T04:15:45.562Z,12.00
2018-11-04T04:18:13.720Z,11.30
2018-11-04T04:20:41.922Z,11.53
2018-11-04T04:23:10.807Z,9.10
2018-11-04T04:25:38.955Z,11.57
2018-11-04T04:28:07.131Z,11.83
2018-11-04T04:30:35.322Z,10.97
2018-11-04T04:33:03.480Z,12.53
2018-11-04T04:35:31.757Z,11.50
2018-11-04T04:38:00.376Z,10.83
2018-11-04T04:40:28.618Z,11.10
2018-11-04T04:42:56.909Z,11.53
2018-11-04T04:45:25.081Z,11.10
2018-11-04T04:47:53.235Z,11.07
2018-11-04T04:50:21.461Z,16.10
2018-11-04T04:52:49.613Z,12.23
2018-11-04T04:55:17.861Z,14.50
2018-11-04T04:57:46.065Z,12.93
2018-11-04T05:00:14.317Z,10.23
2018-11-04T05:02:43.283Z,10.37
2018-11-04T05:05:11.546Z,12.90
2018-11-04T05:07:39.699Z,11.83
2018-11-04T05:10:07.870Z,13.23
2018-11-04T05:12:36.725Z,11.57
2018-11-04T05:15:05.962Z,13.73
2018-11-04T05:17:34.130Z,9.60
2018-11-04T05:20:02.413Z,12.60
2018-11-04T05:22:30.712Z,9.60
2018-11-04T05:24:59.205Z,11.30
2018-11-04T05:27:27.380Z,10.83
2018-11-04T05:29:57.393Z,11.70
2018-11-04T05:32:25.687Z,12.83
2018-11-04T05:34:54.029Z,11.47
2018-11-04T05:37:22.189Z,10.93
2018-11-04T05:39:50.568Z,14.30
2018-11-04T05:42:20.949Z,13.87
2018-11-04T05:44:49.085Z,10.97
2018-11-04T05:47:17.267Z,11.40
2018-11-04T05:49:45.429Z,11.93
2018-11-04T05:52:13.815Z,13.13
2018-11-04T05:54:41.996Z,13.37
2018-11-04T05:57:10.282Z,13.17
2018-11-04T05:59:38.544Z,14.37
2018-11-04T06:02:07.610Z,13.43
2018-11-04T06:04:35.756Z,11.63
2018-11-04T06:07:03.930Z,13.53
2018-11-04T06:09:32.081Z,11.10
2018-11-04T06:12:00.238Z,13.87
2018-11-04T06:14:28.605Z,13.33
2018-11-04T06:16:56.882Z,11.63
2018-11-04T06:19:25.191Z,11.30
2018-11-04T06:21:53.324Z,12.53
2018-11-04T06:24:22.274Z,15.40
2018-11-04T06:26:51.109Z,11.27
2018-11-04T06:29:19.674Z,11.40
2018-11-04T06:31:48.125Z,13.73
2018-11-04T06:34:16.496Z,11.63
2018-11-04T06:36:44.678Z,12.67
2018-11-04T06:39:12.978Z,13.83
2018-11-04T06:41:41.155Z,12.10
2018-11-04T06:44:09.452Z,10.60
2018-11-04T06:46:37.747Z,13.17
2018-11-04T06:49:05.930Z,14.23
2018-11-04T06:51:35.149Z,11.90
2018-11-04T06:54:03.350Z,11.67
2018-11-04T06:56:31.527Z,12.83
2018-11-04T06:59:00.138Z,16.03
2018-11-04T07:01:28.527Z,14.97
2018-11-04T07:04:08.070Z,12.77
2018-11-04T07:06:36.245Z,14.03
2018-11-04T07:09:06.546Z,15.83
2018-11-04T07:11:34.946Z,15.30
2018-11-04T07:14:03.405Z,15.03
2018-11-04T07:16:32.012Z,12.50
2018-11-04T07:19:00.235Z,14.47
2018-11-04T07:21:28.364Z,13.73
2018-11-04T07:23:56.708Z,15.17
2018-11-04T07:26:24.853Z,12.70
2018-11-04T07:28:53.219Z,14.20
2018-11-04T07:31:21.403Z,13.10
2018-11-04T07:33:50.117Z,14.70
2018-11-04T07:36:18.337Z,16.10
2018-11-04T07:38:46.473Z,14.90
2018-11-04T07:41:14.921Z,13.73
2018-11-04T07:43:43.041Z,15.97
2018-11-04T07:46:11.381Z,16.57
2018-11-04T07:48:39.682Z,15.87
2018-11-04T07:51:07.958Z,15.90
2018-11-04T07:53:36.422Z,13.03
2018-11-04T07:56:04.695Z,17.10
2018-11-04T07:58:33.021Z,19.00
2018-11-04T08:01:01.558Z,16.80
2018-11-04T08:03:30.169Z,15.90
2018-11-04T08:05:58.396Z,18.57
2018-11-04T08:08:26.593Z,18.70
2018-11-04T08:10:55.486Z,17.80
2018-11-04T08:13:23.729Z,20.77
2018-11-04T08:15:51.886Z,18.13
2018-11-04T08:18:20.109Z,21.60
2018-11-04T08:20:49.008Z,21.57
2018-11-04T08:23:17.191Z,21.10
2018-11-04T08:25:45.464Z,21.67
2018-11-04T08:28:13.672Z,22.50
2018-11-04T08:30:42.803Z,23.37
2018-11-04T08:33:11.041Z,22.50
2018-11-04T08:35:39.197Z,27.23
2018-11-04T08:38:07.870Z,29.20
2018-11-04T08:40:37.399Z,29.83
2018-11-04T08:43:05.604Z,25.63
2018-11-04T08:45:34.810Z,30.73
2018-11-04T08:48:03.160Z,30.77
2018-11-04T08:50:31.397Z,32.03
2018-11-04T08:52:59.598Z,32.60
2018-11-04T08:55:28.802Z,32.87
2018-11-04T08:57:57.089Z,32.17
2018-11-04T09:00:25.326Z,36.20
2018-11-04T09:02:53.647Z,35.97
2018-11-04T09:05:21.914Z,35.53
2018-11-04T09:07:51.768Z,38.40
2018-11-04T09:10:19.970Z,39.43
2018-11-04T09:12:48.788Z,40.43
2018-11-04T09:15:18.093Z,37.63
2018-11-04T09:17:46.577Z,43.03
2018-11-04T09:20:15.892Z,42.93
2018-11-04T09:22:44.889Z,43.13
2018-11-04T09:25:14.478Z,42.23
2018-11-04T09:27:42.805Z,45.23
2018-11-04T09:30:13.228Z,50.30
2018-11-04T09:32:41.466Z,45.33
2018-11-04T09:35:10.544Z,49.37
2018-11-04T09:37:39.761Z,49.00
2018-11-04T09:40:09.626Z,54.70
2018-11-04T09:42:37.779Z,47.10
2018-11-04T09:45:06.600Z,50.20
2018-11-04T09:47:35.002Z,52.10
2018-11-04T09:50:03.415Z,50.63
2018-11-04T09:52:31.531Z,48.10
2018-11-04T09:54:59.749Z,48.23
2018-11-04T09:57:27.965Z,46.53
2018-11-04T09:59:56.165Z,47.17
2018-11-04T10:02:24.400Z,51.07
2018-11-04T10:04:52.593Z,46.93
2018-11-04T10:07:20.949Z,48.77
2018-11-04T10:09:49.391Z,44.93
2018-11-04T10:12:17.710Z,43.33
2018-11-04T10:14:49.021Z,47.07
2018-11-04T10:17:17.181Z,44.27
2018-11-04T10:19:45.644Z,44.27
2018-11-04T10:22:13.656Z,43.57
2018-11-04T10:24:41.810Z,42.37
2018-11-04T10:27:10.087Z,41.17
2018-11-04T10:29:38.473Z,39.43
2018-11-04T10:32:07.761Z,48.17
2018-11-04T10:34:36.638Z,42.90
2018-11-04T10:37:06.448Z,44.97
2018-11-04T10:39:34.813Z,45.53
2018-11-04T10:42:03.720Z,42.07
2018-11-04T10:44:31.984Z,42.97
2018-11-04T10:47:02.238Z,45.60
2018-11-04T10:49:30.551Z,42.73
2018-11-04T10:51:58.680Z,47.70
2018-11-04T10:54:26.820Z,45.43
2018-11-04T10:56:55.417Z,40.87
2018-11-04T10:59:23.829Z,41.90
2018-11-04T11:01:53.186Z,45.37
2018-11-04T11:04:21.405Z,43.80
2018-11-04T11:06:49.662Z,41.83
2018-11-04T11:09:18.182Z,46.47
2018-11-04T11:11:47.386Z,44.87
2018-11-04T11:14:15.737Z,46.20
2018-11-04T11:16:45.003Z,44.30
2018-11-04T11:19:13.280Z,44.33
2018-11-04T11:21:41.553Z,44.30
2018-11-04T11:24:09.945Z,44.13
2018-11-04T11:26:38.231Z,42.43
2018-11-04T11:29:06.823Z,42.97
2018-11-04T11:31:35.827Z,43.43
2018-11-04T11:34:04.300Z,42.23
2018-11-04T11:36:33.581Z,40.27
2018-11-04T11:39:06.471Z,42.50
2018-11-04T11:41:34.762Z,40.00
2018-11-04T11:44:02.938Z,47.07
2018-11-04T11:46:32.201Z,38.17
2018-11-04T11:49:00.726Z,39.37
2018-11-04T11:51:29.803Z,40.13
2018-11-04T11:53:59.294Z,36.90
2018-11-04T11:56:28.422Z,42.03
2018-11-04T11:58:58.192Z,44.07
2018-11-04T12:01:26.614Z,38.70
2018-11-04T12:03:55.166Z,35.77
2018-11-04T12:06:23.510Z,36.97
2018-11-04T12:08:51.943Z,36.77
2018-11-04T12:11:20.695Z,43.40
2018-11-04T12:13:50.795Z,38.57
2018-11-04T12:16:20.110Z,38.17
2018-11-04T12:18:49.112Z,35.67
2018-11-04T12:21:18.678Z,36.07
2018-11-04T12:23:47.162Z,39.13
2018-11-04T12:26:15.459Z,39.43
2018-11-04T12:28:43.665Z,36.83
2018-11-04T12:31:13.675Z,35.47
2018-11-04T12:33:42.587Z,34.60
2018-11-04T12:36:11.466Z,36.40
2018-11-04T12:38:39.709Z,36.10
2018-11-04T12:41:08.011Z,36.07
2018-11-04T12:43:36.284Z,35.03
2018-11-04T12:46:04.726Z,35.93
2018-11-04T12:48:33.127Z,35.07
2018-11-04T12:51:01.350Z,35.97
2018-11-04T12:53:30.052Z,37.37
2018-11-04T12:55:59.352Z,35.80
2018-11-04T12:58:27.749Z,36.90
2018-11-04T13:00:56.228Z,37.53
2018-11-04T13:03:26.686Z,36.60
2018-11-04T13:05:55.233Z,39.23
2018-11-04T13:08:23.606Z,37.43
2018-11-04T13:10:52.613Z,35.87
2018-11-04T13:13:21.334Z,33.90
2018-11-04T13:15:49.826Z,34.57
2018-11-04T13:18:17.994Z,34.73
2018-11-04T13:20:46.231Z,36.23
2018-11-04T13:23:14.561Z,34.67
2018-11-04T13:25:43.232Z,35.67
2018-11-04T13:28:11.577Z,33.90
2018-11-04T13:30:39.717Z,35.47
2018-11-04T13:33:08.041Z,37.63
2018-11-04T13:35:36.481Z,33.87
2018-11-04T13:38:04.857Z,38.13
2018-11-04T13:40:33.451Z,39.30
2018-11-04T13:43:01.581Z,38.60
2018-11-04T13:45:29.868Z,36.90
2018-11-04T13:47:58.228Z,36.00
2018-11-04T13:50:26.877Z,33.47
2018-11-04T13:52:57.007Z,34.03
2018-11-04T13:55:25.331Z,35.37
2018-11-04T13:57:56.902Z,36.50
2018-11-04T14:00:27.609Z,35.63
2018-11-04T14:02:56.484Z,33.87
2018-11-04T14:05:29.031Z,37.97
2018-11-04T14:07:58.210Z,35.27
2018-11-04T14:10:26.545Z,37.77
2018-11-04T14:12:55.259Z,38.43
2018-11-04T14:15:23.509Z,34.23
2018-11-04T14:17:52.093Z,35.33
2018-11-04T14:23:40.763Z,37.17
2018-11-04T14:26:10.117Z,37.03
2018-11-04T14:28:38.647Z,35.90
2018-11-04T14:31:08.406Z,36.43
2018-11-04T14:33:36.662Z,38.80
2018-11-04T14:36:06.464Z,36.07
2018-11-04T14:38:34.857Z,35.93
2018-11-04T14:41:05.567Z,37.20
2018-11-04T14:43:34.235Z,36.50
2018-11-04T14:46:10.607Z,39.93
2018-11-04T14:48:39.189Z,37.83
2018-11-04T14:51:28.977Z,37.30
2018-11-04T14:53:57.341Z,40.50
2018-11-04T14:56:27.171Z,39.10
2018-11-04T14:58:55.790Z,38.47
2018-11-04T15:01:26.264Z,40.03
2018-11-04T15:04:00.487Z,36.77
2018-11-04T15:06:30.041Z,35.93
2018-11-04T15:09:00.055Z,39.43
2018-11-04T15:11:35.077Z,42.77
2018-11-04T15:14:04.441Z,41.37
2018-11-04T15:16:33.409Z,39.70
2018-11-04T15:19:02.492Z,39.13
2018-11-04T15:21:31.334Z,35.73
2018-11-04T15:24:00.735Z,37.43
2018-11-04T15:26:29.352Z,34.17
2018-11-04T15:28:58.034Z,36.20
2018-11-04T15:31:26.521Z,34.87
2018-11-04T15:33:54.797Z,35.43
2018-11-04T15:36:30.178Z,33.13
2018-11-04T15:39:01.172Z,34.60
2018-11-04T15:41:31.197Z,37.60
2018-11-04T15:43:59.479Z,32.57
2018-11-04T15:46:27.808Z,32.33
2018-11-04T15:48:57.640Z,38.30
2018-11-04T15:51:28.490Z,32.83
2018-11-04T15:53:57.219Z,32.70
2018-11-04T15:56:26.067Z,33.27
2018-11-04T15:58:56.105Z,34.00
2018-11-04T16:01:26.342Z,30.87
2018-11-04T16:03:54.677Z,31.00
2018-11-04T16:06:24.547Z,31.57
2018-11-04T16:08:56.505Z,34.47
2018-11-04T16:11:38.154Z,31.77
2018-11-04T16:14:06.655Z,31.00
2018-11-04T16:16:35.434Z,30.37
2018-11-04T16:19:04.621Z,36.93
2018-11-04T16:21:35.697Z,33.40
2018-11-04T16:24:04.001Z,31.07
2018-11-04T16:26:33.376Z,31.17
2018-11-04T16:29:01.755Z,31.60
2018-11-04T16:31:29.930Z,36.13
2018-11-04T16:33:58.136Z,32.93
2018-11-04T16:36:26.444Z,29.50
2018-11-04T16:38:54.786Z,32.17
2018-11-04T16:41:23.217Z,34.73
2018-11-04T16:43:51.537Z,36.57
2018-11-04T16:46:19.710Z,32.93
2018-11-04T16:48:47.928Z,35.97
2018-11-04T16:51:17.118Z,35.40
2018-11-04T16:53:45.315Z,38.37
2018-11-04T16:56:13.725Z,42.83
2018-11-04T16:58:42.039Z,41.47
2018-11-04T17:01:10.464Z,40.03
2018-11-04T17:03:38.760Z,42.13
2018-11-04T17:06:07.021Z,41.43
2018-11-04T17:08:35.679Z,41.00
2018-11-04T17:11:04.144Z,45.17
2018-11-04T17:13:32.669Z,47.03
2018-11-04T17:16:00.994Z,45.40
2018-11-04T17:18:29.590Z,42.53
2018-11-04T17:20:57.970Z,45.97
2018-11-04T17:23:27.056Z,47.07
2018-11-04T17:25:55.365Z,50.03
2018-11-04T17:28:23.730Z,48.03
2018-11-04T17:30:52.318Z,49.20
2018-11-04T17:33:22.765Z,49.40
2018-11-04T17:35:52.184Z,47.97
2018-11-04T17:38:20.461Z,48.30
2018-11-04T17:40:49.029Z,47.53
2018-11-04T17:43:17.309Z,52.63
2018-11-04T17:45:45.600Z,47.87
2018-11-04T17:48:13.885Z,49.80
2018-11-04T17:50:42.854Z,50.07
2018-11-04T17:53:11.145Z,47.33
2018-11-04T17:55:39.671Z,49.77
2018-11-04T17:58:08.107Z,47.30
2018-11-04T18:00:36.691Z,51.00
2018-11-04T18:03:05.103Z,49.53
2018-11-04T18:05:33.330Z,49.53
2018-11-04T18:08:01.525Z,50.57
2018-11-04T18:10:29.782Z,47.90
2018-11-04T18:12:57.965Z,46.03
2018-11-04T18:15:27.358Z,49.77
2018-11-04T18:17:55.522Z,50.20
2018-11-04T18:20:23.738Z,49.13
2018-11-04T18:22:51.879Z,48.13
2018-11-04T18:25:20.065Z,44.40
2018-11-04T18:27:48.330Z,49.53
2018-11-04T18:30:17.084Z,48.13
2018-11-04T18:32:46.115Z,51.30
2018-11-04T18:35:14.569Z,47.53
2018-11-04T18:37:46.210Z,49.50
2018-11-04T18:40:16.236Z,50.47
2018-11-04T18:42:44.944Z,48.57
2018-11-04T18:45:16.972Z,47.50
2018-11-04T18:47:45.567Z,44.00
2018-11-04T18:50:14.714Z,52.40
2018-11-04T18:52:43.094Z,46.50
2018-11-04T18:55:12.077Z,54.00
2018-11-04T18:57:42.481Z,44.37
2018-11-04T19:00:12.979Z,47.30
2018-11-04T19:02:41.696Z,49.17
2018-11-04T19:05:10.507Z,44.90
2018-11-04T19:07:39.135Z,49.20
2018-11-04T19:10:12.329Z,51.03
2018-11-04T19:12:41.026Z,52.20
2018-11-04T19:15:15.262Z,48.90
2018-11-04T19:20:26.411Z,48.90
2018-11-04T19:23:00.272Z,46.73
2018-11-04T19:25:29.523Z,49.53
2018-11-04T19:27:58.062Z,51.13
2018-11-04T19:30:26.480Z,48.10
2018-11-04T19:32:58.436Z,48.70
2018-11-04T19:35:27.052Z,50.80
2018-11-04T19:37:58.534Z,49.13
2018-11-04T19:40:29.490Z,48.87
2018-11-04T19:42:59.048Z,53.57
2018-11-04T19:45:27.804Z,54.00
2018-11-04T19:48:04.789Z,54.57
2018-11-04T19:50:35.105Z,51.07
2018-11-04T19:53:03.452Z,54.60
2018-11-04T19:55:31.717Z,52.90
2018-11-04T19:58:00.042Z,53.77
2018-11-04T20:00:28.207Z,54.30
2018-11-04T20:02:56.475Z,51.37
2018-11-04T20:05:27.932Z,54.80
2018-11-04T20:07:56.086Z,58.03
2018-11-04T20:10:24.424Z,58.17
2018-11-04T20:12:58.151Z,54.90
2018-11-04T20:15:26.391Z,54.00
2018-11-04T20:17:54.783Z,59.67
2018-11-04T20:20:24.767Z,61.57
2018-11-04T20:22:53.039Z,59.40
2018-11-04T20:25:26.917Z,56.23
2018-11-04T20:28:02.047Z,56.70
2018-11-04T20:30:30.423Z,55.87
2018-11-04T20:33:02.626Z,61.07
2018-11-04T20:35:30.844Z,59.63
2018-11-04T20:37:59.086Z,57.20
2018-11-04T20:40:32.598Z,61.13
2018-11-04T20:43:00.802Z,59.97
2018-11-04T20:45:28.914Z,59.70
2018-11-04T20:48:02.462Z,61.70
2018-11-04T20:50:36.162Z,60.23
2018-11-04T20:53:04.628Z,63.00
2018-11-04T20:55:38.352Z,56.87
2018-11-04T20:58:07.174Z,60.60
2018-11-04T21:00:35.389Z,61.00
2018-11-04T21:03:03.798Z,60.57
2018-11-04T21:05:32.734Z,59.57
2018-11-04T21:08:01.217Z,59.73
2018-11-04T21:10:30.425Z,58.83
2018-11-04T21:12:58.869Z,64.97
2018-11-04T21:15:27.066Z,62.47
2018-11-04T21:17:55.271Z,62.73
2018-11-04T21:20:23.421Z,65.90
2018-11-04T21:22:51.614Z,60.30
2018-11-04T21:25:20.082Z,60.13
2018-11-04T21:27:48.298Z,62.00
2018-11-04T21:30:16.693Z,63.60
2018-11-04T21:32:45.616Z,64.57
2018-11-04T21:35:14.196Z,63.67
2018-11-04T21:37:42.650Z,63.83
2018-11-04T21:40:11.606Z,68.47
2018-11-04T21:42:40.716Z,65.03
2018-11-04T21:45:10.310Z,62.10
2018-11-04T21:47:38.574Z,66.60
2018-11-04T21:50:07.857Z,72.90
2018-11-04T21:52:36.121Z,67.10
2018-11-04T21:55:06.475Z,70.53
2018-11-04T21:57:40.109Z,69.73
2018-11-04T22:00:11.083Z,80.17
2018-11-04T22:02:39.671Z,72.10
2018-11-04T22:05:09.905Z,66.93
2018-11-04T22:07:38.398Z,75.53
2018-11-04T22:10:08.820Z,70.93
2018-11-04T22:12:36.974Z,70.67
2018-11-04T22:15:05.301Z,73.83
2018-11-04T22:17:33.446Z,76.00
2018-11-04T22:20:01.606Z,81.93
2018-11-04T22:22:29.785Z,72.70
2018-11-04T22:24:57.965Z,78.40
2018-11-04T22:27:26.094Z,82.13
2018-11-04T22:29:54.782Z,77.10
2018-11-04T22:32:23.022Z,78.17
2018-11-04T22:34:51.271Z,84.43
2018-11-04T22:37:19.370Z,75.47
2018-11-04T22:39:47.844Z,76.43
2018-11-04T22:42:16.101Z,75.77
2018-11-04T22:44:44.177Z,74.57
2018-11-04T22:47:12.307Z,73.27
2018-11-04T22:49:40.533Z,74.17
2018-11-04T22:52:08.707Z,72.80
2018-11-04T22:54:36.874Z,80.33
2018-11-04T22:57:05.141Z,76.37
2018-11-04T22:59:33.400Z,74.23
2018-11-04T23:02:01.625Z,77.97
2018-11-04T23:04:35.198Z,74.73
2018-11-04T23:07:03.381Z,71.03
2018-11-04T23:09:31.749Z,73.13
2018-11-04T23:11:59.951Z,73.10
2018-11-04T23:14:28.204Z,75.43
2018-11-04T23:16:56.374Z,72.93
2018-11-04T23:19:24.923Z,68.80
2018-11-04T23:21:53.313Z,70.00
2018-11-04T23:24:21.434Z,73.27
2018-11-04T23:26:49.592Z,71.17
2018-11-04T23:29:17.856Z,68.77
2018-11-04T23:31:46.348Z,68.70
2018-11-04T23:34:14.537Z,67.50
2018-11-04T23:36:42.706Z,71.10
2018-11-04T23:39:11.788Z,71.03
2018-11-04T23:41:40.441Z,73.30
2018-11-04T23:44:08.649Z,72.37
2018-11-04T23:46:36.937Z,67.00
2018-11-04T23:49:05.933Z,74.97
2018-11-04T23:51:34.106Z,67.77
2018-11-04T23:54:02.256Z,70.43
2018-11-04T23:56:30.439Z,71.77
2018-11-04T23:58:58.599Z,68.33
